Livonia, MI (48153)

6:53 PM EDT on July 31, 2015 (GMT -0400)
south west Livonia | | Change Station
CLOSE
Current Station
Personal Weather Station
Location: Livonia, MI
Elevation: 676 ft
Nearby Weather Stations

Elev 676 ft 42.36 °N, 83.41 °W | Updated 13 minutes ago

Partly Cloudy
Partly Cloudy
83.7 °F
Feels Like 83 °F
N
4.2
Wind Variable Wind from WSW

Today
High -- | Low -- °F
--% Chance of Precip.
Yesterday
High -- | Low -- °F
Precip. -- in
6:24 AM 8:54 PM
Full, 100% visible
Pressure 29.83 in
Visibility 10.0 miles
Clouds Few 6500 ft
Scattered Clouds 9500 ft
Heat Index 83 °F
Dew Point 56 °F
Humidity 39%
Rainfall 0.00 in
Snow Depth Not available.
UV 3 out of 12
Pollen 3.90 out of 12
Air Quality Not available.
Flu Activity Not available.
METAR KDTW 312153Z 26016G23KT 10SM FEW065 SCT095 30/12 A2984 RMK AO2 SLP100 CB DSNT S T03000122

More Conditions Fewer Conditions

Pressure 29.83 in
Visibility 10.0 miles
Clouds Few 6500 ft
Scattered Clouds 9500 ft
Heat Index 83 °F
Dew Point 56 °F
Humidity 39%
Rainfall 0.00 in
Snow Depth Not available.
UV 3 out of 12
Pollen 3.90 out of 12
Air Quality Not available.
Flu Activity Not available.
METAR KDTW 312153Z 26016G23KT 10SM FEW065 SCT095 30/12 A2984 RMK AO2 SLP100 CB DSNT S T03000122

More Conditions Fewer Conditions

10-Day Weather Forecast

×

Almanac

Astronomy

Jul. 31, 2015 Rise Set
Actual Time
Civil Twilight
Nautical Twilight
Astronomical Twilight
Moon
Length of Visible Light
Length of Day
Tomorrow will be .
, % of the Moon is Illuminated

Today's Extremes

State Highs State Lows

Community

WunderPhotos

Upload Photos

1,842,764 photos uploaded!

WunderBlogs® & News

Nearby

Air Quality

  Air Quality AQ Index Pollutant
Not available.

Snow Depth

Station Depth Elevation

Earthquake Activity

City Distance Mag. Time & Date
Minimum magnitude displayed is 2.5.

Coastal Water Temperatures

Place Temperature

Stations

Nearby Weather Stations

Station Location Temp. Windchill Dew Point Humidity Wind Precip. Elev Updated Type